Latest Weather Observations for Cobar Airport

IDN60801

Issued at 10:02 pm EDT Saturday 25 February 2017 (issued every 30 minutes, with the page automatically refreshed every 10 minutes)

About weather observations | Map of weather stations | Latest weather observations for NSW | Other Formats
Station Details ID: 048237 Name: COBAR AIRPORT AWS Lat: -31.54 Lon: 145.80 Height: 218.0 m
Data from the previous 72 hours. | See also: Recent months at Cobar Airport
Date/Time
EDT
Temp
°C
App
Temp
°C
Dew
Point
°C
Rel
Hum
%
Delta-T
°C
Wind Press
QNH
hPa
Press
MSL
hPa
Rain since
9am
mm
Dir  Spd
km/h
Gust
km/h
Spd
kts
Gust
kts
25/10:00pm 27.8 21.8 -1.2 15 13.5 S 20 30 11 16 1014.7 1013.4 0.0
25/09:30pm 28.6 22.6 -1.5 14 14.0 S 20 28 11 15 1014.2 1012.9 0.0
25/09:00pm 28.8 23.3 -2.3 13 14.3 S 17 24 9 13 1013.9 1012.6 0.0
25/08:30pm 29.7 23.7 -2.7 12 14.9 S 19 28 10 15 1013.6 1012.3 0.0
25/08:00pm 30.9 24.3 -3.0 11 15.6 S 22 32 12 17 1013.3 1012.0 0.0
25/07:30pm 32.2 25.2 -3.2 10 16.4 SSW 24 35 13 19 1013.0 1011.7 0.0
25/07:00pm 33.3 26.1 -2.4 10 16.9 S 26 33 14 18 1012.8 1011.5 0.0
25/06:30pm 33.8 27.0 -2.0 10 17.1 S 24 33 13 18 1012.7 1011.4 0.0
25/06:00pm 34.2 28.4 -1.7 10 17.3 S 19 28 10 15 1012.6 1011.3 0.0
25/05:30pm 34.4 28.4 -1.6 10 17.4 S 20 33 11 18 1012.7 1011.4 0.0
25/05:00pm 34.6 29.2 1.1 12 17.0 S 19 32 10 17 1012.9 1011.6 0.0
25/04:30pm 34.5 27.5 2.1 13 16.7 SSW 28 39 15 21 1013.1 1011.8 0.0
25/04:00pm 34.1 28.1 -1.8 10 17.3 SSE 20 32 11 17 1013.4 1012.1 0.0
25/03:30pm 33.4 27.7 -1.0 11 16.7 S 19 30 10 16 1013.8 1012.5 0.0
25/03:00pm 33.9 28.6 -0.7 11 16.9 S 17 35 9 19 1014.1 1012.8 0.0
25/02:30pm 34.1 28.6 0.7 12 16.7 S 19 33 10 18 1014.7 1013.4 0.0
25/02:00pm 33.4 28.5 2.3 14 15.9 SSW 17 30 9 16 1015.1 1013.8 0.0
25/01:30pm 33.2 28.3 4.0 16 15.4 S 19 32 10 17 1015.4 1014.1 0.0
25/01:00pm 32.0 27.5 6.2 20 14.0 S 19 30 10 16 1015.8 1014.5 0.0
25/12:30pm 31.2 27.3 7.0 22 13.2 S 17 24 9 13 1016.1 1014.8 0.0
25/12:00pm 29.5 25.5 6.8 24 12.2 SSW 17 26 9 14 1016.7 1015.4 0.0
25/11:30am 29.1 26.1 7.7 26 11.7 S 13 20 7 11 1016.9 1015.6 0.0
25/11:00am 27.2 24.4 7.1 28 10.8 S 11 20 6 11 1017.3 1016.0 0.0
25/10:30am 25.8 22.6 6.9 30 10.0 S 13 22 7 12 1017.5 1016.2 0.0
25/10:00am 24.1 19.9 5.5 30 9.5 S 17 22 9 12 1017.6 1016.3 0.0
25/09:30am 22.7 18.8 5.2 32 8.8 SSE 15 20 8 11 1017.6 1016.3 0.0
25/09:00am 21.4 17.4 4.9 34 8.2 SSE 15 19 8 10 1017.7 1016.4 0.0
25/08:30am 20.2 15.9 5.1 37 7.5 SSW 17 22 9 12 1017.6 1016.3 0.0
25/08:00am 18.7 15.9 5.2 41 6.6 SSW 9 15 5 8 1017.3 1016.0 0.0
25/07:30am 15.5 12.9 3.3 44 5.6 SW 6 9 3 5 1017.1 1015.8 0.0
25/07:00am 14.8 13.2 2.7 44 5.5 CALM 0 0 0 0 1016.9 1015.6 0.0
25/06:30am 15.8 14.3 2.9 42 5.9 CALM 0 0 0 0 1016.9 1015.6 0.0
25/06:00am 17.0 15.4 2.6 38 6.6 CALM 0 4 0 2 1016.8 1015.5 0.0
25/05:30am 19.0 15.5 3.6 36 7.3 SSE 11 15 6 8 1016.7 1015.4 0.0
25/05:00am 18.8 15.3 3.4 36 7.3 S 11 11 6 6 1016.5 1015.2 0.0
25/04:30am 19.3 16.0 2.6 33 7.8 S 9 11 5 6 1016.3 1015.0 0.0
25/04:00am 20.7 17.1 3.0 31 8.4 S 11 15 6 8 1016.2 1014.9 0.0
25/03:30am 22.4 17.4 3.5 29 9.2 SSE 19 26 10 14 1016.2 1014.9 0.0
25/03:00am 22.1 18.2 3.3 29 9.1 SSE 13 17 7 9 1016.4 1015.1 0.0
25/02:30am 21.3 18.0 2.6 29 8.9 S 9 11 5 6 1016.6 1015.3 0.0
25/02:00am 21.2 17.1 2.0 28 9.0 S 13 15 7 8 1016.6 1015.3 0.0
25/01:30am 23.1 19.3 2.0 25 10.0 S 11 15 6 8 1016.7 1015.4 0.0
25/01:00am 25.1 21.0 2.5 23 11.0 SSE 13 17 7 9 1016.9 1015.6 0.0
25/12:30am 26.0 21.6 2.7 22 11.5 S 15 22 8 12 1016.9 1015.6 0.0
25/12:00am 26.8 22.0 2.7 21 11.9 S 17 22 9 12 1017.0 1015.7 0.0
 
Date/Time
EDT
Temp
°C
App
Temp
°C
Dew
Point
°C
Rel
Hum
%
Delta-T
°C
Wind Press
QNH
hPa
Press
MSL
hPa
Rain since
9am
mm
Dir  Spd
km/h
Gust
km/h
Spd
kts
Gust
kts
24/11:30pm 27.6 22.2 2.6 20 12.4 S 20 26 11 14 1016.9 1015.6 0.0
24/11:00pm 27.8 22.8 3.5 21 12.3 S 19 24 10 13 1017.0 1015.7 0.0
24/10:30pm 28.6 24.1 4.2 21 12.5 S 17 20 9 11 1017.1 1015.8 0.0
24/10:00pm 28.4 24.6 4.0 21 12.5 SSW 13 17 7 9 1017.0 1015.7 0.0
24/09:30pm 29.4 25.6 4.1 20 13.0 SSW 13 17 7 9 1016.8 1015.5 0.0
24/09:00pm 30.8 26.2 3.8 18 13.9 SSW 17 20 9 11 1016.6 1015.3 0.0
24/08:30pm 31.8 27.1 2.9 16 14.8 SSW 17 24 9 13 1016.3 1015.0 0.0
24/08:00pm 32.8 28.2 3.7 16 15.2 SSW 17 26 9 14 1015.9 1014.6 0.0
24/07:30pm 33.9 28.3 3.7 15 15.9 SSW 22 30 12 16 1015.7 1014.4 0.0
24/07:00pm 34.7 29.3 4.3 15 16.2 SSW 22 32 12 17 1015.5 1014.2 0.0
24/06:30pm 35.8 30.3 4.2 14 16.9 SSW 22 32 12 17 1015.3 1014.0 0.0
24/06:00pm 35.9 30.4 4.2 14 17.0 SW 22 33 12 18 1015.2 1013.9 0.0
24/05:30pm 36.8 32.3 5.9 15 17.1 SW 19 26 10 14 1015.2 1013.9 0.0
24/05:00pm 36.5 32.3 5.7 15 16.9 SSW 17 32 9 17 1015.2 1013.9 0.0
24/04:30pm 36.2 31.6 6.4 16 16.5 SSW 20 32 11 17 1015.5 1014.2 0.0
24/04:00pm 37.0 33.3 7.9 17 16.6 SW 17 35 9 19 1015.6 1014.3 0.0
24/03:30pm 36.6 32.8 7.6 17 16.4 SW 17 39 9 21 1016.0 1014.7 0.0
24/03:00pm 35.7 31.4 6.9 17 16.1 SSW 19 28 10 15 1016.4 1015.1 0.0
24/02:30pm 36.0 33.1 8.0 18 15.9 SSW 13 24 7 13 1016.8 1015.5 0.0
24/02:00pm 36.0 32.3 8.0 18 15.9 S 17 28 9 15 1017.4 1016.1 0.0
24/01:30pm 35.0 31.3 7.9 19 15.3 S 17 30 9 16 1017.8 1016.5 0.0
24/01:00pm 33.8 29.7 7.7 20 14.6 S 19 33 10 18 1018.2 1016.9 0.0
24/12:30pm 33.9 30.3 8.5 21 14.4 S 17 24 9 13 1018.7 1017.5 0.0
24/12:00pm 32.5 28.2 8.0 22 13.7 S 20 30 11 16 1019.1 1017.9 0.0
24/11:30am 32.0 28.0 8.9 24 13.1 S 20 28 11 15 1019.3 1018.1 0.0
24/11:00am 30.3 26.6 8.1 25 12.3 S 17 28 9 15 1019.7 1018.4 0.0
24/10:30am 29.3 25.2 7.8 26 11.8 SSE 19 24 10 13 1019.7 1018.4 0.0
24/10:00am 28.4 24.2 7.6 27 11.3 SSE 19 26 10 14 1019.7 1018.4 0.0
24/09:30am 27.5 23.2 7.9 29 10.7 SSE 20 28 11 15 1019.7 1018.4 0.0
24/09:00am 25.9 22.1 7.5 31 9.8 SSE 17 33 9 18 1019.6 1018.3 0.0
24/08:30am 23.9 20.4 7.1 34 8.8 S 15 19 8 10 1019.3 1018.1 0.0
24/08:00am 22.8 19.6 7.0 36 8.2 SSW 13 19 7 10 1019.1 1017.9 0.0
24/07:30am 21.7 19.3 6.8 38 7.7 S 9 13 5 7 1018.7 1017.5 0.0
24/07:00am 21.4 18.1 6.5 38 7.6 S 13 17 7 9 1018.3 1017.0 0.0
24/06:30am 22.2 19.0 6.8 37 8.0 S 13 19 7 10 1017.9 1016.6 0.0
24/06:00am 22.5 19.3 6.7 36 8.2 S 13 15 7 8 1017.7 1016.4 0.0
24/05:30am 22.9 20.0 6.6 35 8.4 S 11 15 6 8 1017.5 1016.2 0.0
24/05:00am 23.2 19.8 6.1 33 8.8 S 13 17 7 9 1017.3 1016.0 0.0
24/04:30am 23.1 20.4 5.5 32 8.9 S 9 15 5 8 1017.2 1015.9 0.0
24/04:00am 22.9 20.1 5.3 32 8.9 SSW 9 11 5 6 1017.3 1016.0 0.0
24/03:30am 23.9 20.6 4.8 29 9.6 SSE 11 15 6 8 1017.3 1016.0 0.0
24/03:00am 24.1 20.4 4.5 28 9.8 SSE 13 17 7 9 1017.2 1015.9 0.0
24/02:30am 24.3 20.5 4.1 27 10.1 SSE 13 15 7 8 1017.2 1015.9 0.0
24/02:00am 24.6 21.3 4.4 27 10.1 SSE 11 13 6 7 1017.4 1016.1 0.0
24/01:30am 25.1 21.8 4.3 26 10.5 S 11 15 6 8 1017.5 1016.2 0.0
24/01:00am 24.0 21.3 2.8 25 10.3 SSE 6 7 3 4 1017.6 1016.3 0.0
24/12:30am 26.2 23.1 3.5 23 11.3 SSE 9 9 5 5 1017.5 1016.2 0.0
24/12:00am 27.2 23.6 3.0 21 12.1 SSE 11 11 6 6 1017.4 1016.1 0.0
 
Date/Time
EDT
Temp
°C
App
Temp
°C
Dew
Point
°C
Rel
Hum
%
Delta-T
°C
Wind Press
QNH
hPa
Press
MSL
hPa
Rain since
9am
mm
Dir  Spd
km/h
Gust
km/h
Spd
kts
Gust
kts
23/11:30pm 28.1 24.1 3.0 20 12.6 SSW 13 17 7 9 1017.1 1015.8 0.0
23/11:00pm 27.9 25.1 2.9 20 12.5 S 7 11 4 6 1016.8 1015.5 0.0
23/10:30pm 28.8 25.6 2.9 19 13.0 SSW 9 13 5 7 1016.7 1015.4 0.0
23/10:00pm 30.1 25.9 1.5 16 14.1 S 13 17 7 9 1016.4 1015.1 0.0
23/09:30pm 30.8 26.7 2.1 16 14.4 SSW 13 17 7 9 1016.1 1014.8 0.0
23/09:00pm 31.0 27.3 2.3 16 14.5 S 11 13 6 7 1015.8 1014.5 0.0
23/08:30pm 33.7 28.9 2.5 14 16.1 SSW 17 20 9 11 1015.3 1014.0 0.0
23/08:00pm 35.0 30.9 2.5 13 16.9 SSW 13 17 7 9 1015.0 1013.7 0.0
23/07:30pm 36.9 32.5 2.8 12 18.0 SSW 15 24 8 13 1014.7 1013.4 0.0
23/07:00pm 37.8 33.5 3.5 12 18.4 SW 15 22 8 12 1014.4 1013.1 0.0
23/06:30pm 37.7 33.6 4.6 13 18.0 SSW 15 26 8 14 1014.2 1012.9 0.0
23/06:00pm 38.1 33.5 3.8 12 18.5 S 17 24 9 13 1014.1 1012.8 0.0
23/05:30pm 39.1 35.4 4.5 12 18.9 WNW 13 22 7 12 1014.1 1012.8 0.0
23/05:00pm 39.3 36.6 5.8 13 18.7 WSW 9 17 5 9 1014.2 1012.9 0.0
23/04:30pm 38.0 34.0 4.8 13 18.1 SW 15 24 8 13 1014.3 1013.0 0.0
23/04:00pm 37.9 35.6 5.8 14 17.8 WSW 7 11 4 6 1014.5 1013.3 0.0
23/03:30pm 37.5 34.6 6.5 15 17.3 SE 11 20 6 11 1014.9 1013.6 0.0
23/03:00pm 38.2 33.7 6.0 14 17.9 NNW 19 28 10 15 1015.2 1013.9 0.0
23/02:30pm 37.4 34.3 7.3 16 17.0 NW 13 26 7 14 1015.6 1014.3 0.0
23/02:00pm 37.0 33.5 7.0 16 16.9 SW 15 30 8 16 1015.9 1014.6 0.0
23/01:30pm 36.5 33.8 5.7 15 16.9 NE 9 17 5 9 1016.1 1014.8 0.0
23/01:00pm 36.3 32.1 8.2 18 16.0 WNW 20 32 11 17 1016.3 1015.0 0.0
23/12:30pm 35.6 33.2 11.3 23 14.5 NW 15 30 8 16 1016.8 1015.5 0.0
23/12:00pm 35.2 33.2 12.8 26 13.6 NNW 15 24 8 13 1017.1 1015.8 0.0
23/11:30am 34.7 32.0 13.0 27 13.2 NNW 19 32 10 17 1017.2 1015.9 0.0
23/11:00am 34.5 31.4 13.3 27 12.9 N 22 33 12 18 1017.4 1016.1 0.0
23/10:30am 33.2 28.9 13.3 30 12.1 N 28 39 15 21 1017.1 1015.8 0.0
23/10:00am 31.6 27.6 12.9 32 11.2 N 26 35 14 19 1017.0 1015.7 0.0
23/09:30am 30.7 26.3 13.0 33 10.6 N 28 35 15 19 1017.0 1015.7 0.0
23/09:00am 29.7 26.1 13.0 35 10.0 NNE 24 33 13 18 1016.7 1015.4 0.0
23/08:30am 28.1 24.7 12.5 38 9.2 NNE 22 32 12 17 1016.5 1015.2 0.0
23/08:00am 25.5 23.7 12.0 43 7.8 NE 13 19 7 10 1016.3 1015.0 0.0
23/07:30am 23.9 21.9 11.6 46 7.0 NE 13 15 7 8 1016.0 1014.7 0.0
23/07:00am 23.7 22.1 11.4 46 7.0 NE 11 15 6 8 1015.7 1014.4 0.0
23/06:30am 23.8 22.5 11.2 45 7.1 ENE 9 11 5 6 1015.4 1014.1 0.0
23/06:00am 24.3 22.8 10.6 42 7.7 NE 9 11 5 6 1015.0 1013.7 0.0
23/05:30am 25.7 23.6 11.1 40 8.3 NNE 13 17 7 9 1014.8 1013.5 0.0
23/05:00am 24.8 23.0 11.0 42 7.8 NNE 11 15 6 8 1014.5 1013.3 0.0
23/04:30am 21.9 20.1 8.1 41 7.3 NE 7 9 4 5 1014.5 1013.3 0.0
23/04:00am 23.4 21.4 8.7 39 7.9 ENE 9 11 5 6 1014.4 1013.1 0.0
23/03:30am 24.2 21.8 8.6 37 8.4 ENE 11 15 6 8 1014.5 1013.3 0.0
23/03:00am 24.3 21.4 8.3 36 8.6 ENE 13 17 7 9 1014.7 1013.4 0.0
23/02:30am 24.3 21.4 8.3 36 8.6 NE 13 15 7 8 1014.8 1013.5 0.0
23/02:00am 24.9 22.4 8.4 35 8.9 ENE 11 13 6 7 1014.9 1013.6 0.0
23/01:30am 25.2 23.0 7.8 33 9.3 ENE 9 11 5 6 1014.9 1013.6 0.0
23/01:00am 25.9 23.4 8.0 32 9.7 ENE 11 13 6 7 1015.1 1013.8 0.0
23/12:30am 26.8 23.7 7.3 29 10.5 NE 13 17 7 9 1015.1 1013.8 0.0
23/12:00am 27.5 24.4 7.4 28 10.8 ENE 13 17 7 9 1015.4 1014.1 0.0
 
Date/Time
EDT
Temp
°C
App
Temp
°C
Dew
Point
°C
Rel
Hum
%
Delta-T
°C
Wind Press
QNH
hPa
Press
MSL
hPa
Rain since
9am
mm
Dir  Spd
km/h
Gust
km/h
Spd
kts
Gust
kts
22/11:30pm 26.8 23.7 5.7 26 11.0 NE 11 13 6 7 1015.4 1014.1 0.0
22/11:00pm 27.4 23.9 5.6 25 11.4 NE 13 15 7 8 1015.3 1014.0 0.0
22/10:30pm 26.0 23.0 3.9 24 11.1 NE 9 11 5 6 1015.1 1013.8 0.0

Other Formats:

Comma delimited format used in spreadsheet applications
http://www.bom.gov.au/fwo/IDN60801/IDN60801.94710.axf

JavaScript Object Notation format (JSON) in row-major order
http://www.bom.gov.au/fwo/IDN60801/IDN60801.94710.json